Weather History for Bend, OR

Change the Weather History Date:

Tuesday, November 19, 2013

  Actual Average (KRDM) Record (KRDM)
Temperature  
Mean Temperature 44 °F 36 °F  
Max Temperature 50 °F 47 °F 67 °F (1989)
Min Temperature 39 °F 25 °F -2 °F (1977)
Degree Days  
Heating Degree Days 20 29  
Month to date heating degree days 490  
Since 1 July heating degree days 1435  
Cooling Degree Days 0 0  
Month to date cooling degree days 0  
Year to date cooling degree days 222  
Moisture  
Dew Point 37 °F    
Average Humidity 75    
Maximum Humidity 87    
Minimum Humidity 62    
Precipitation  
Precipitation 0.00 in 0.03 in 0.51 in (1955)
Month to date precipitation 0.59  
Year to date precipitation 7.37  
Sea Level Pressure  
Sea Level Pressure 29.81 in    
Wind  
Wind Speed 14 mph (SSW)    
Max Wind Speed 25 mph    
Max Gust Speed 33 mph    
Visibility 10 miles    
Events Rain    
T = Trace of Precipitation, MM = Missing Value Source: NWS Daily Summary

Daily Weather History Graph

Daily Weather History Graph

Search for Another Location

Airport:

Trip Planner

Search our weather history database for the weather conditions in past years. The results will help you decide how hot, cold, wet, or windy it might be!

Date:

Astronomy

Nov. 19, 2013 Rise Set
Actual Time 7:05 AM PST 4:34 PM PST
Civil Twilight 6:34 AM PST 5:06 PM PST
Nautical Twilight 5:58 AM PST 5:41 PM PST
Astronomical Twilight 5:24 AM PST 6:15 PM PST
Moon 6:29 PM PST (11/19) 8:49 AM PST (11/19)
Length of Visible Light 10h 31m
Length of Day
9h 28m
Waning Gibbous, 95% of the Moon is Illuminated
Nov 19
Waning Gibbous
Nov 25
Last Quarter
Dec 2
New
Dec 9
First Quarter
Dec 17
Full

Hourly Weather History & Observations

Time (PST) Temp. Windchill Dew Point Humidity Pressure Visibility Wind Dir Wind Speed Gust Speed Precip Events Conditions
12:15 AM 44.6 °F 36.6 °F 35.6 °F 71% 29.82 in 10.0 mi SSW 19.6 mph 32.2 mph N/A   Partly Cloudy
12:35 AM 44.6 °F 35.5 °F 35.6 °F 71% 29.80 in 10.0 mi SSW 25.3 mph 33.4 mph N/A   Scattered Clouds
12:55 AM 44.6 °F 36.9 °F 35.6 °F 71% 29.81 in 10.0 mi SSW 18.4 mph 24.2 mph N/A   Partly Cloudy
1:15 AM 44.6 °F 36.1 °F 35.6 °F 71% 29.81 in 10.0 mi SSW 21.9 mph 31.1 mph N/A   Clear
1:35 AM 42.8 °F 35.4 °F 35.6 °F 76% 29.82 in 10.0 mi SSW 15.0 mph 28.8 mph N/A   Clear
1:55 AM 42.8 °F 35.4 °F 35.6 °F 76% 29.82 in 10.0 mi SSW 15.0 mph 20.7 mph N/A   Partly Cloudy
2:15 AM 41.0 °F 33.9 °F 35.6 °F 81% 29.81 in 10.0 mi SSW 12.7 mph 27.6 mph N/A   Clear
2:35 AM 41.0 °F 32.8 °F 35.6 °F 81% 29.82 in 10.0 mi SSW 16.1 mph 25.3 mph N/A   Partly Cloudy
2:55 AM 41.0 °F 32.8 °F 35.6 °F 81% 29.82 in 10.0 mi SSW 16.1 mph 20.7 mph N/A   Partly Cloudy
3:15 AM 41.0 °F 35.8 °F 35.6 °F 81% 29.83 in 10.0 mi SSW 8.1 mph 18.4 mph N/A   Clear
3:35 AM 41.0 °F 35.8 °F 35.6 °F 81% 29.83 in 10.0 mi SSW 8.1 mph - N/A   Clear
3:55 AM 41.0 °F 36.4 °F 35.6 °F 81% 29.82 in 10.0 mi South 6.9 mph - N/A   Partly Cloudy
4:15 AM 39.2 °F 33.0 °F 35.6 °F 87% 29.81 in 10.0 mi SSW 9.2 mph - N/A   Clear
4:35 AM 39.2 °F 35.0 °F 35.6 °F 87% 29.81 in 10.0 mi SSW 5.8 mph - N/A   Clear
4:55 AM 39.2 °F 33.6 °F 35.6 °F 87% 29.81 in 10.0 mi SSW 8.1 mph - N/A   Clear
5:15 AM 41.0 °F 34.7 °F 35.6 °F 81% 29.80 in 10.0 mi SSW 10.4 mph - N/A   Clear
5:35 AM 41.0 °F 33.5 °F 35.6 °F 81% 29.79 in 10.0 mi SSW 13.8 mph 21.9 mph N/A   Clear
5:55 AM 42.8 °F 36.6 °F 35.6 °F 76% 29.80 in 10.0 mi SSW 11.5 mph 17.3 mph N/A   Clear
6:15 AM 41.0 °F 35.8 °F 35.6 °F 81% 29.80 in 10.0 mi SSW 8.1 mph - N/A   Clear
6:35 AM 41.0 °F 34.7 °F 35.6 °F 81% 29.79 in 10.0 mi SSW 10.4 mph - N/A   Clear
6:55 AM 42.8 °F 36.6 °F 35.6 °F 76% 29.79 in 10.0 mi SW 11.5 mph 16.1 mph N/A   Clear
7:15 AM 42.8 °F 37.5 °F 35.6 °F 76% 29.80 in 10.0 mi SW 9.2 mph - N/A   Clear
7:35 AM 42.8 °F 38.6 °F 35.6 °F 76% 29.81 in 10.0 mi SW 6.9 mph - N/A   Clear
7:55 AM 44.6 °F 39.2 °F 37.4 °F 76% 29.81 in 10.0 mi SW 10.4 mph - N/A   Clear
8:15 AM 44.6 °F 40.7 °F 37.4 °F 76% 29.81 in 10.0 mi SSW 6.9 mph - N/A   Clear
8:35 AM 46.4 °F 42.9 °F 37.4 °F 71% 29.81 in 10.0 mi South 6.9 mph - N/A   Clear
8:55 AM 46.4 °F 41.9 °F 37.4 °F 71% 29.81 in 10.0 mi South 9.2 mph - N/A   Scattered Clouds
9:15 AM 48.2 °F - 37.4 °F 66% 29.81 in 10.0 mi South 12.7 mph 18.4 mph N/A   Partly Cloudy
9:35 AM 46.4 °F 40.4 °F 37.4 °F 71% 29.81 in 10.0 mi SSW 13.8 mph 24.2 mph N/A   Partly Cloudy
9:55 AM 46.4 °F 39.8 °F 37.4 °F 71% 29.81 in 10.0 mi SSW 16.1 mph 24.2 mph N/A   Clear
10:15 AM 48.2 °F - 37.4 °F 66% 29.81 in 10.0 mi SSW 12.7 mph - N/A   Clear
10:35 AM 50.0 °F - 37.4 °F 62% 29.81 in 10.0 mi SW 15.0 mph 21.9 mph N/A   Partly Cloudy
10:55 AM 50.0 °F - 37.4 °F 62% 29.81 in 10.0 mi SSW 19.6 mph 24.2 mph N/A   Partly Cloudy
11:15 AM 48.2 °F - 39.2 °F 71% 29.81 in 10.0 mi SSW 21.9 mph 25.3 mph N/A Rain Light Rain
11:35 AM 46.4 °F 40.7 °F 41.0 °F 81% 29.81 in 6.0 mi SSW 12.7 mph 21.9 mph N/A Rain Light Rain
11:55 AM 46.4 °F 41.1 °F 41.0 °F 81% 29.81 in 10.0 mi SSW 11.5 mph 19.6 mph N/A Rain Light Rain
12:15 PM 46.4 °F 40.1 °F 41.0 °F 81% 29.80 in 10.0 mi SSW 15.0 mph 24.2 mph N/A Rain Light Rain
12:35 PM 48.2 °F - 41.0 °F 76% 29.80 in 10.0 mi SSW 17.3 mph 21.9 mph N/A   Clear
12:55 PM 48.2 °F - 41.0 °F 76% 29.80 in 10.0 mi SSW 17.3 mph 24.2 mph N/A   Partly Cloudy
1:15 PM 48.2 °F - 39.2 °F 71% 29.80 in 10.0 mi South 17.3 mph 25.3 mph N/A   Partly Cloudy
1:35 PM 48.2 °F - 39.2 °F 71% 29.79 in 10.0 mi SSW 12.7 mph 21.9 mph N/A   Partly Cloudy
1:55 PM 48.2 °F - 39.2 °F 71% 29.80 in 10.0 mi SSW 17.3 mph 25.3 mph N/A   Partly Cloudy
2:15 PM 48.2 °F - 39.2 °F 71% 29.79 in 10.0 mi SSW 17.3 mph 23.0 mph N/A   Partly Cloudy
2:35 PM 48.2 °F - 37.4 °F 66% 29.79 in 10.0 mi SSW 18.4 mph 24.2 mph N/A   Clear
2:55 PM 48.2 °F - 39.2 °F 71% 29.79 in 10.0 mi SSW 13.8 mph - N/A   Partly Cloudy
3:15 PM 50.0 °F - 39.2 °F 66% 29.79 in 10.0 mi SSW 17.3 mph 23.0 mph N/A   Mostly Cloudy
3:35 PM 50.0 °F - 37.4 °F 62% 29.79 in 10.0 mi SSW 16.1 mph 21.9 mph N/A   Mostly Cloudy
3:55 PM 48.2 °F - 39.2 °F 71% 29.79 in 10.0 mi South 17.3 mph 20.7 mph N/A   Mostly Cloudy
4:15 PM 48.2 °F - 39.2 °F 71% 29.79 in 10.0 mi SSW 16.1 mph - N/A   Scattered Clouds
4:35 PM 46.4 °F 40.1 °F 39.2 °F 76% 29.80 in 10.0 mi SSW 15.0 mph - N/A   Mostly Cloudy
4:55 PM 46.4 °F 41.5 °F 39.2 °F 76% 29.80 in 10.0 mi SSW 10.4 mph - N/A   Mostly Cloudy
5:15 PM 46.4 °F 40.1 °F 39.2 °F 76% 29.79 in 10.0 mi SSW 15.0 mph 18.4 mph N/A   Mostly Cloudy
5:35 PM 46.4 °F 40.1 °F 37.4 °F 71% 29.79 in 10.0 mi SSW 15.0 mph - N/A   Scattered Clouds
5:55 PM 46.4 °F 40.1 °F 37.4 °F 71% 29.80 in 10.0 mi SSW 15.0 mph 19.6 mph N/A   Partly Cloudy
6:15 PM 44.6 °F 38.4 °F 37.4 °F 76% 29.80 in 10.0 mi SW 12.7 mph 20.7 mph N/A   Clear
6:35 PM 44.6 °F 38.4 °F 37.4 °F 76% 29.80 in 10.0 mi SW 12.7 mph 18.4 mph N/A   Clear
6:55 PM 44.6 °F 38.1 °F 37.4 °F 76% 29.80 in 10.0 mi SW 13.8 mph - N/A   Clear
7:15 PM 44.6 °F 38.8 °F 37.4 °F 76% 29.80 in 10.0 mi SW 11.5 mph - N/A   Partly Cloudy
7:35 PM 44.6 °F 38.4 °F 37.4 °F 76% 29.80 in 10.0 mi SW 12.7 mph 16.1 mph N/A   Scattered Clouds
7:55 PM 44.6 °F 38.4 °F 37.4 °F 76% 29.80 in 10.0 mi SW 12.7 mph - N/A   Partly Cloudy
8:15 PM 44.6 °F 38.4 °F 37.4 °F 76% 29.80 in 10.0 mi SW 12.7 mph - N/A   Partly Cloudy
8:35 PM 44.6 °F 38.4 °F 37.4 °F 76% 29.81 in 10.0 mi SW 12.7 mph 18.4 mph N/A   Clear
8:55 PM 44.6 °F 38.8 °F 37.4 °F 76% 29.81 in 10.0 mi SW 11.5 mph 17.3 mph N/A   Partly Cloudy
9:15 PM 44.6 °F 38.4 °F 37.4 °F 76% 29.81 in 10.0 mi SW 12.7 mph - N/A   Partly Cloudy
9:35 PM 44.6 °F 39.2 °F 37.4 °F 76% 29.81 in 10.0 mi SW 10.4 mph - N/A   Scattered Clouds
9:55 PM 44.6 °F 39.2 °F 37.4 °F 76% 29.82 in 10.0 mi WSW 10.4 mph - N/A   Partly Cloudy
10:15 PM 44.6 °F 38.4 °F 37.4 °F 76% 29.82 in 10.0 mi WSW 12.7 mph 17.3 mph N/A   Scattered Clouds
10:35 PM 42.8 °F 36.2 °F 37.4 °F 81% 29.82 in 10.0 mi WSW 12.7 mph 18.4 mph N/A   Scattered Clouds
10:55 PM 42.8 °F 37.0 °F 37.4 °F 81% 29.83 in 10.0 mi SW 10.4 mph - N/A   Scattered Clouds
11:15 PM 42.8 °F 37.5 °F 37.4 °F 81% 29.83 in 10.0 mi WSW 9.2 mph - N/A   Scattered Clouds
11:35 PM 42.8 °F 38.0 °F 37.4 °F 81% 29.84 in 10.0 mi WSW 8.1 mph - N/A   Partly Cloudy
11:55 PM 42.8 °F 38.0 °F 37.4 °F 81% 29.85 in 10.0 mi West 8.1 mph - N/A   Partly Cloudy